sensor_id;sensor_type;location;lat;lon;timestamp;P1;durP1;ratioP1;P2;durP2;ratioP2
53959;SDS011;39866;48.638;-2.020;2023-04-02T00:02:33;11.98;;;3.22;;
53959;SDS011;39866;48.638;-2.020;2023-04-02T00:07:58;15.52;;;3.75;;
53959;SDS011;39866;48.638;-2.020;2023-04-02T00:15:36;16.55;;;3.97;;
53959;SDS011;39866;48.638;-2.020;2023-04-02T00:18:03;20.42;;;4.43;;
53959;SDS011;39866;48.638;-2.020;2023-04-02T00:20:31;21.30;;;4.13;;
53959;SDS011;39866;48.638;-2.020;2023-04-02T00:23:01;17.27;;;4.18;;
53959;SDS011;39866;48.638;-2.020;2023-04-02T00:25:27;20.00;;;4.47;;
53959;SDS011;39866;48.638;-2.020;2023-04-02T00:27:55;14.68;;;3.78;;
53959;SDS011;39866;48.638;-2.020;2023-04-02T00:30:20;17.20;;;4.20;;
53959;SDS011;39866;48.638;-2.020;2023-04-02T00:32:46;15.45;;;3.97;;
53959;SDS011;39866;48.638;-2.020;2023-04-02T00:35:15;15.73;;;3.38;;
53959;SDS011;39866;48.638;-2.020;2023-04-02T00:37:46;21.45;;;4.68;;
53959;SDS011;39866;48.638;-2.020;2023-04-02T00:40:15;21.52;;;4.57;;
53959;SDS011;39866;48.638;-2.020;2023-04-02T00:42:45;12.90;;;3.35;;
53959;SDS011;39866;48.638;-2.020;2023-04-02T00:45:18;15.88;;;3.50;;
53959;SDS011;39866;48.638;-2.020;2023-04-02T00:47:48;12.93;;;3.55;;
53959;SDS011;39866;48.638;-2.020;2023-04-02T00:50:17;12.75;;;3.60;;
53959;SDS011;39866;48.638;-2.020;2023-04-02T00:52:47;11.05;;;3.10;;
53959;SDS011;39866;48.638;-2.020;2023-04-02T00:55:16;14.93;;;3.65;;
53959;SDS011;39866;48.638;-2.020;2023-04-02T00:57:48;10.65;;;2.60;;
53959;SDS011;39866;48.638;-2.020;2023-04-02T01:00:19;9.63;;;2.83;;
53959;SDS011;39866;48.638;-2.020;2023-04-02T01:05:44;14.60;;;3.42;;
53959;SDS011;39866;48.638;-2.020;2023-04-02T01:08:15;17.45;;;3.85;;
53959;SDS011;39866;48.638;-2.020;2023-04-02T01:16:43;17.58;;;3.40;;
53959;SDS011;39866;48.638;-2.020;2023-04-02T01:21:56;15.02;;;3.70;;
53959;SDS011;39866;48.638;-2.020;2023-04-02T01:24:32;14.18;;;3.88;;
53959;SDS011;39866;48.638;-2.020;2023-04-02T01:27:02;13.52;;;3.95;;
53959;SDS011;39866;48.638;-2.020;2023-04-02T01:29:39;16.13;;;3.85;;
53959;SDS011;39866;48.638;-2.020;2023-04-02T01:32:13;14.40;;;3.45;;
53959;SDS011;39866;48.638;-2.020;2023-04-02T01:34:41;11.52;;;3.80;;
53959;SDS011;39866;48.638;-2.020;2023-04-02T01:42:42;22.80;;;4.03;;
53959;SDS011;39866;48.638;-2.020;2023-04-02T01:45:13;13.02;;;3.42;;
53959;SDS011;39866;48.638;-2.020;2023-04-02T01:47:43;16.42;;;3.83;;
53959;SDS011;39866;48.638;-2.020;2023-04-02T01:50:21;15.50;;;3.67;;
53959;SDS011;39866;48.638;-2.020;2023-04-02T01:52:51;10.07;;;3.70;;
53959;SDS011;39866;48.638;-2.020;2023-04-02T01:56:20;12.23;;;3.55;;
53959;SDS011;39866;48.638;-2.020;2023-04-02T01:58:23;16.77;;;3.92;;
53959;SDS011;39866;48.638;-2.020;2023-04-02T02:03:26;16.75;;;3.70;;
53959;SDS011;39866;48.638;-2.020;2023-04-02T02:05:52;17.20;;;3.63;;
53959;SDS011;39866;48.638;-2.020;2023-04-02T02:10:49;14.10;;;3.63;;
53959;SDS011;39866;48.638;-2.020;2023-04-02T02:13:15;11.27;;;3.17;;
53959;SDS011;39866;48.638;-2.020;2023-04-02T02:15:40;16.02;;;4.38;;
53959;SDS011;39866;48.638;-2.020;2023-04-02T02:18:06;11.82;;;3.55;;
53959;SDS011;39866;48.638;-2.020;2023-04-02T02:20:36;14.73;;;4.65;;
53959;SDS011;39866;48.638;-2.020;2023-04-02T02:23:02;12.82;;;3.50;;
53959;SDS011;39866;48.638;-2.020;2023-04-02T02:25:32;15.35;;;4.25;;
53959;SDS011;39866;48.638;-2.020;2023-04-02T02:28:02;18.90;;;3.83;;
53959;SDS011;39866;48.638;-2.020;2023-04-02T02:33:15;17.10;;;3.72;;
53959;SDS011;39866;48.638;-2.020;2023-04-02T02:35:48;16.75;;;4.15;;
53959;SDS011;39866;48.638;-2.020;2023-04-02T02:41:00;19.35;;;5.00;;
53959;SDS011;39866;48.638;-2.020;2023-04-02T02:43:30;14.60;;;3.83;;
53959;SDS011;39866;48.638;-2.020;2023-04-02T02:45:57;16.10;;;3.85;;
53959;SDS011;39866;48.638;-2.020;2023-04-02T02:48:24;13.73;;;3.28;;
53959;SDS011;39866;48.638;-2.020;2023-04-02T02:50:57;16.17;;;3.67;;
53959;SDS011;39866;48.638;-2.020;2023-04-02T02:53:24;16.17;;;3.80;;
53959;SDS011;39866;48.638;-2.020;2023-04-02T02:55:50;15.88;;;3.67;;
53959;SDS011;39866;48.638;-2.020;2023-04-02T02:58:24;16.67;;;4.15;;
53959;SDS011;39866;48.638;-2.020;2023-04-02T03:00:52;13.50;;;3.97;;
53959;SDS011;39866;48.638;-2.020;2023-04-02T03:03:22;16.80;;;3.70;;
53959;SDS011;39866;48.638;-2.020;2023-04-02T03:05:52;16.40;;;3.78;;
53959;SDS011;39866;48.638;-2.020;2023-04-02T03:08:25;16.20;;;4.20;;
53959;SDS011;39866;48.638;-2.020;2023-04-02T03:10:59;14.73;;;3.75;;
53959;SDS011;39866;48.638;-2.020;2023-04-02T03:13:33;14.75;;;4.10;;
53959;SDS011;39866;48.638;-2.020;2023-04-02T03:18:56;17.25;;;3.88;;
53959;SDS011;39866;48.638;-2.020;2023-04-02T03:21:27;14.18;;;3.97;;
53959;SDS011;39866;48.638;-2.020;2023-04-02T03:24:04;15.35;;;3.80;;
53959;SDS011;39866;48.638;-2.020;2023-04-02T03:26:39;18.10;;;3.80;;
53959;SDS011;39866;48.638;-2.020;2023-04-02T03:29:13;12.07;;;3.85;;
53959;SDS011;39866;48.638;-2.020;2023-04-02T03:32:22;16.90;;;4.13;;
53959;SDS011;39866;48.638;-2.020;2023-04-02T03:34:36;14.18;;;4.18;;
53959;SDS011;39866;48.638;-2.020;2023-04-02T03:39:57;17.38;;;4.53;;
53959;SDS011;39866;48.638;-2.020;2023-04-02T03:42:29;16.40;;;3.72;;
53959;SDS011;39866;48.638;-2.020;2023-04-02T03:45:14;18.88;;;4.20;;
53959;SDS011;39866;48.638;-2.020;2023-04-02T03:47:46;13.82;;;3.88;;
53959;SDS011;39866;48.638;-2.020;2023-04-02T03:52:50;12.13;;;4.10;;
53959;SDS011;39866;48.638;-2.020;2023-04-02T03:55:20;17.25;;;4.70;;
53959;SDS011;39866;48.638;-2.020;2023-04-02T04:03:53;14.10;;;3.97;;
53959;SDS011;39866;48.638;-2.020;2023-04-02T04:06:28;17.67;;;4.68;;
53959;SDS011;39866;48.638;-2.020;2023-04-02T04:09:56;19.13;;;4.35;;
53959;SDS011;39866;48.638;-2.020;2023-04-02T04:12:06;13.63;;;4.38;;
53959;SDS011;39866;48.638;-2.020;2023-04-02T04:14:34;10.77;;;3.92;;
53959;SDS011;39866;48.638;-2.020;2023-04-02T04:17:03;10.70;;;3.60;;
53959;SDS011;39866;48.638;-2.020;2023-04-02T04:22:17;8.05;;;3.88;;
53959;SDS011;39866;48.638;-2.020;2023-04-02T04:24:54;11.27;;;4.40;;
53959;SDS011;39866;48.638;-2.020;2023-04-02T04:30:46;9.20;;;4.00;;
53959;SDS011;39866;48.638;-2.020;2023-04-02T04:35:56;13.70;;;4.70;;
53959;SDS011;39866;48.638;-2.020;2023-04-02T04:38:29;9.40;;;4.10;;
53959;SDS011;39866;48.638;-2.020;2023-04-02T04:41:19;8.13;;;3.80;;
53959;SDS011;39866;48.638;-2.020;2023-04-02T04:43:53;10.52;;;3.85;;
53959;SDS011;39866;48.638;-2.020;2023-04-02T04:54:47;9.25;;;3.90;;
53959;SDS011;39866;48.638;-2.020;2023-04-02T04:57:19;7.35;;;2.75;;
53959;SDS011;39866;48.638;-2.020;2023-04-02T04:59:51;9.18;;;3.35;;
53959;SDS011;39866;48.638;-2.020;2023-04-02T05:02:25;8.70;;;3.28;;
53959;SDS011;39866;48.638;-2.020;2023-04-02T05:04:56;8.23;;;3.75;;
53959;SDS011;39866;48.638;-2.020;2023-04-02T05:13:01;8.70;;;3.05;;
53959;SDS011;39866;48.638;-2.020;2023-04-02T05:18:21;11.00;;;3.58;;
53959;SDS011;39866;48.638;-2.020;2023-04-02T05:23:29;8.13;;;3.15;;
53959;SDS011;39866;48.638;-2.020;2023-04-02T05:31:48;8.00;;;3.40;;
53959;SDS011;39866;48.638;-2.020;2023-04-02T05:36:49;8.63;;;3.58;;
53959;SDS011;39866;48.638;-2.020;2023-04-02T05:39:17;8.18;;;3.50;;
53959;SDS011;39866;48.638;-2.020;2023-04-02T05:41:47;7.22;;;3.33;;
53959;SDS011;39866;48.638;-2.020;2023-04-02T05:44:23;10.32;;;3.92;;
53959;SDS011;39866;48.638;-2.020;2023-04-02T05:52:11;8.15;;;4.22;;
53959;SDS011;39866;48.638;-2.020;2023-04-02T05:57:47;10.45;;;4.00;;
53959;SDS011;39866;48.638;-2.020;2023-04-02T06:00:38;9.10;;;4.15;;
53959;SDS011;39866;48.638;-2.020;2023-04-02T06:05:48;12.95;;;4.57;;
53959;SDS011;39866;48.638;-2.020;2023-04-02T06:08:18;7.47;;;4.30;;
53959;SDS011;39866;48.638;-2.020;2023-04-02T06:11:07;7.10;;;3.95;;
53959;SDS011;39866;48.638;-2.020;2023-04-02T06:13:35;9.75;;;3.90;;
53959;SDS011;39866;48.638;-2.020;2023-04-02T06:16:00;7.28;;;4.13;;
53959;SDS011;39866;48.638;-2.020;2023-04-02T06:18:30;8.15;;;4.07;;
53959;SDS011;39866;48.638;-2.020;2023-04-02T06:20:59;8.27;;;3.90;;
53959;SDS011;39866;48.638;-2.020;2023-04-02T06:23:50;8.57;;;3.75;;
53959;SDS011;39866;48.638;-2.020;2023-04-02T06:26:27;9.90;;;4.07;;
53959;SDS011;39866;48.638;-2.020;2023-04-02T06:31:39;6.72;;;3.50;;
53959;SDS011;39866;48.638;-2.020;2023-04-02T06:34:06;7.53;;;3.25;;
53959;SDS011;39866;48.638;-2.020;2023-04-02T06:36:40;9.48;;;4.65;;
53959;SDS011;39866;48.638;-2.020;2023-04-02T06:39:07;9.98;;;3.92;;
53959;SDS011;39866;48.638;-2.020;2023-04-02T06:41:35;14.13;;;4.65;;
53959;SDS011;39866;48.638;-2.020;2023-04-02T06:44:04;11.23;;;4.43;;
53959;SDS011;39866;48.638;-2.020;2023-04-02T06:46:46;6.90;;;4.55;;
53959;SDS011;39866;48.638;-2.020;2023-04-02T06:51:47;8.18;;;4.38;;
53959;SDS011;39866;48.638;-2.020;2023-04-02T06:54:16;9.38;;;5.25;;
53959;SDS011;39866;48.638;-2.020;2023-04-02T06:56:49;9.75;;;4.95;;
53959;SDS011;39866;48.638;-2.020;2023-04-02T06:59:16;10.07;;;4.82;;
53959;SDS011;39866;48.638;-2.020;2023-04-02T07:01:47;12.60;;;5.18;;
53959;SDS011;39866;48.638;-2.020;2023-04-02T07:04:17;14.32;;;5.10;;
53959;SDS011;39866;48.638;-2.020;2023-04-02T07:06:44;8.07;;;4.32;;
53959;SDS011;39866;48.638;-2.020;2023-04-02T07:09:10;13.07;;;4.82;;
53959;SDS011;39866;48.638;-2.020;2023-04-02T07:11:35;12.32;;;5.55;;
53959;SDS011;39866;48.638;-2.020;2023-04-02T07:14:01;11.23;;;5.13;;
53959;SDS011;39866;48.638;-2.020;2023-04-02T07:16:28;9.27;;;4.90;;
53959;SDS011;39866;48.638;-2.020;2023-04-02T07:18:55;10.02;;;5.28;;
53959;SDS011;39866;48.638;-2.020;2023-04-02T07:21:22;8.75;;;4.90;;
53959;SDS011;39866;48.638;-2.020;2023-04-02T07:23:49;12.15;;;5.35;;
53959;SDS011;39866;48.638;-2.020;2023-04-02T07:26:16;9.52;;;4.82;;
53959;SDS011;39866;48.638;-2.020;2023-04-02T07:28:43;10.02;;;4.70;;
53959;SDS011;39866;48.638;-2.020;2023-04-02T07:31:20;9.25;;;4.40;;
53959;SDS011;39866;48.638;-2.020;2023-04-02T07:33:48;12.30;;;5.15;;
53959;SDS011;39866;48.638;-2.020;2023-04-02T07:36:15;8.25;;;4.32;;
53959;SDS011;39866;48.638;-2.020;2023-04-02T07:38:42;9.15;;;4.68;;
53959;SDS011;39866;48.638;-2.020;2023-04-02T07:41:08;14.52;;;4.82;;
53959;SDS011;39866;48.638;-2.020;2023-04-02T07:43:34;13.20;;;4.50;;
53959;SDS011;39866;48.638;-2.020;2023-04-02T07:46:00;11.20;;;4.63;;
53959;SDS011;39866;48.638;-2.020;2023-04-02T07:48:26;10.32;;;5.63;;
53959;SDS011;39866;48.638;-2.020;2023-04-02T07:50:51;11.32;;;5.10;;
53959;SDS011;39866;48.638;-2.020;2023-04-02T07:53:24;11.95;;;5.47;;
53959;SDS011;39866;48.638;-2.020;2023-04-02T07:55:52;10.55;;;4.90;;
53959;SDS011;39866;48.638;-2.020;2023-04-02T07:58:17;11.55;;;5.05;;
53959;SDS011;39866;48.638;-2.020;2023-04-02T08:00:42;12.10;;;4.80;;
53959;SDS011;39866;48.638;-2.020;2023-04-02T08:03:08;12.82;;;5.68;;
53959;SDS011;39866;48.638;-2.020;2023-04-02T08:05:34;12.25;;;4.93;;
53959;SDS011;39866;48.638;-2.020;2023-04-02T08:08:00;10.38;;;4.93;;
53959;SDS011;39866;48.638;-2.020;2023-04-02T08:10:25;11.10;;;4.50;;
53959;SDS011;39866;48.638;-2.020;2023-04-02T08:12:50;10.95;;;4.57;;
53959;SDS011;39866;48.638;-2.020;2023-04-02T08:15:16;11.45;;;5.03;;
53959;SDS011;39866;48.638;-2.020;2023-04-02T08:17:42;11.43;;;4.80;;
53959;SDS011;39866;48.638;-2.020;2023-04-02T08:20:14;10.35;;;4.70;;
53959;SDS011;39866;48.638;-2.020;2023-04-02T08:22:42;13.15;;;5.13;;
53959;SDS011;39866;48.638;-2.020;2023-04-02T08:25:08;7.93;;;4.15;;
53959;SDS011;39866;48.638;-2.020;2023-04-02T08:27:34;8.70;;;4.32;;
53959;SDS011;39866;48.638;-2.020;2023-04-02T08:29:59;9.95;;;4.78;;
53959;SDS011;39866;48.638;-2.020;2023-04-02T08:32:25;11.60;;;4.53;;
53959;SDS011;39866;48.638;-2.020;2023-04-02T08:34:52;11.60;;;5.22;;
53959;SDS011;39866;48.638;-2.020;2023-04-02T08:37:18;11.38;;;3.95;;
53959;SDS011;39866;48.638;-2.020;2023-04-02T08:39:44;9.75;;;4.53;;
53959;SDS011;39866;48.638;-2.020;2023-04-02T08:47:38;12.23;;;4.65;;
53959;SDS011;39866;48.638;-2.020;2023-04-02T08:52:34;10.70;;;4.07;;
53959;SDS011;39866;48.638;-2.020;2023-04-02T08:55:02;11.90;;;4.80;;
53959;SDS011;39866;48.638;-2.020;2023-04-02T09:02:40;12.45;;;4.10;;
53959;SDS011;39866;48.638;-2.020;2023-04-02T09:05:19;11.82;;;4.30;;
53959;SDS011;39866;48.638;-2.020;2023-04-02T09:07:50;8.73;;;3.80;;
53959;SDS011;39866;48.638;-2.020;2023-04-02T09:10:17;8.50;;;4.18;;
53959;SDS011;39866;48.638;-2.020;2023-04-02T09:12:45;9.88;;;4.05;;
53959;SDS011;39866;48.638;-2.020;2023-04-02T09:15:24;12.18;;;4.53;;
53959;SDS011;39866;48.638;-2.020;2023-04-02T09:20:54;8.63;;;4.15;;
53959;SDS011;39866;48.638;-2.020;2023-04-02T09:23:21;5.70;;;3.42;;
53959;SDS011;39866;48.638;-2.020;2023-04-02T09:25:49;7.25;;;3.03;;
53959;SDS011;39866;48.638;-2.020;2023-04-02T09:28:16;9.63;;;3.67;;
53959;SDS011;39866;48.638;-2.020;2023-04-02T09:33:41;8.93;;;3.53;;
53959;SDS011;39866;48.638;-2.020;2023-04-02T09:39:05;7.20;;;3.38;;
53959;SDS011;39866;48.638;-2.020;2023-04-02T09:41:36;9.07;;;3.67;;
53959;SDS011;39866;48.638;-2.020;2023-04-02T09:44:12;7.03;;;3.80;;
53959;SDS011;39866;48.638;-2.020;2023-04-02T09:46:47;9.80;;;3.20;;
53959;SDS011;39866;48.638;-2.020;2023-04-02T09:49:24;8.13;;;3.15;;
53959;SDS011;39866;48.638;-2.020;2023-04-02T09:54:44;8.00;;;3.55;;
53959;SDS011;39866;48.638;-2.020;2023-04-02T09:57:21;8.05;;;3.70;;
53959;SDS011;39866;48.638;-2.020;2023-04-02T10:00:10;7.68;;;3.58;;
53959;SDS011;39866;48.638;-2.020;2023-04-02T10:02:37;7.18;;;3.50;;
53959;SDS011;39866;48.638;-2.020;2023-04-02T10:05:04;8.48;;;3.20;;
53959;SDS011;39866;48.638;-2.020;2023-04-02T10:13:01;8.38;;;3.20;;
53959;SDS011;39866;48.638;-2.020;2023-04-02T10:15:32;8.90;;;3.90;;
53959;SDS011;39866;48.638;-2.020;2023-04-02T10:18:02;8.55;;;3.80;;
53959;SDS011;39866;48.638;-2.020;2023-04-02T10:20:36;6.85;;;3.03;;
53959;SDS011;39866;48.638;-2.020;2023-04-02T10:23:07;8.88;;;3.10;;
53959;SDS011;39866;48.638;-2.020;2023-04-02T10:28:58;6.20;;;2.88;;
53959;SDS011;39866;48.638;-2.020;2023-04-02T10:31:39;7.53;;;2.88;;
53959;SDS011;39866;48.638;-2.020;2023-04-02T10:34:20;10.88;;;3.25;;
53959;SDS011;39866;48.638;-2.020;2023-04-02T10:36:55;6.32;;;3.25;;
53959;SDS011;39866;48.638;-2.020;2023-04-02T10:39:46;5.40;;;2.83;;
53959;SDS011;39866;48.638;-2.020;2023-04-02T10:47:53;4.82;;;2.92;;
53959;SDS011;39866;48.638;-2.020;2023-04-02T10:50:30;8.50;;;3.40;;
53959;SDS011;39866;48.638;-2.020;2023-04-02T10:53:10;4.90;;;3.03;;
53959;SDS011;39866;48.638;-2.020;2023-04-02T10:55:42;8.75;;;3.78;;
53959;SDS011;39866;48.638;-2.020;2023-04-02T10:58:21;6.03;;;3.30;;
53959;SDS011;39866;48.638;-2.020;2023-04-02T11:01:14;6.80;;;3.40;;
53959;SDS011;39866;48.638;-2.020;2023-04-02T11:03:48;7.75;;;3.40;;
53959;SDS011;39866;48.638;-2.020;2023-04-02T11:06:20;6.75;;;3.50;;
53959;SDS011;39866;48.638;-2.020;2023-04-02T11:08:49;7.10;;;2.88;;
53959;SDS011;39866;48.638;-2.020;2023-04-02T11:11:20;13.07;;;3.80;;
53959;SDS011;39866;48.638;-2.020;2023-04-02T11:16:36;7.28;;;3.17;;
53959;SDS011;39866;48.638;-2.020;2023-04-02T11:24:03;7.45;;;3.42;;
53959;SDS011;39866;48.638;-2.020;2023-04-02T11:26:39;7.00;;;3.05;;
53959;SDS011;39866;48.638;-2.020;2023-04-02T11:31:49;8.57;;;3.60;;
53959;SDS011;39866;48.638;-2.020;2023-04-02T11:37:28;8.48;;;3.90;;
53959;SDS011;39866;48.638;-2.020;2023-04-02T11:39:58;13.77;;;4.28;;
53959;SDS011;39866;48.638;-2.020;2023-04-02T11:42:33;6.95;;;3.70;;
53959;SDS011;39866;48.638;-2.020;2023-04-02T11:53:26;10.45;;;4.35;;
53959;SDS011;39866;48.638;-2.020;2023-04-02T12:11:47;7.55;;;4.55;;
53959;SDS011;39866;48.638;-2.020;2023-04-02T12:16:59;6.80;;;4.20;;
53959;SDS011;39866;48.638;-2.020;2023-04-02T12:19:26;7.93;;;3.60;;
53959;SDS011;39866;48.638;-2.020;2023-04-02T12:21:54;7.07;;;3.95;;
53959;SDS011;39866;48.638;-2.020;2023-04-02T12:24:23;7.75;;;4.10;;
53959;SDS011;39866;48.638;-2.020;2023-04-02T12:27:13;6.90;;;3.92;;
53959;SDS011;39866;48.638;-2.020;2023-04-02T12:29:42;8.88;;;3.92;;
53959;SDS011;39866;48.638;-2.020;2023-04-02T12:32:23;11.27;;;4.28;;
53959;SDS011;39866;48.638;-2.020;2023-04-02T12:34:52;7.30;;;3.90;;
53959;SDS011;39866;48.638;-2.020;2023-04-02T12:37:28;9.73;;;4.97;;
53959;SDS011;39866;48.638;-2.020;2023-04-02T12:39:58;6.63;;;4.43;;
53959;SDS011;39866;48.638;-2.020;2023-04-02T12:42:32;6.45;;;4.63;;
53959;SDS011;39866;48.638;-2.020;2023-04-02T12:44:59;7.10;;;4.03;;
53959;SDS011;39866;48.638;-2.020;2023-04-02T12:47:26;6.65;;;4.45;;
53959;SDS011;39866;48.638;-2.020;2023-04-02T12:49:52;6.25;;;4.30;;
53959;SDS011;39866;48.638;-2.020;2023-04-02T12:52:20;9.27;;;4.85;;
53959;SDS011;39866;48.638;-2.020;2023-04-02T12:54:52;6.90;;;4.40;;
53959;SDS011;39866;48.638;-2.020;2023-04-02T13:00:32;7.55;;;4.38;;
53959;SDS011;39866;48.638;-2.020;2023-04-02T13:03:06;5.35;;;3.90;;
53959;SDS011;39866;48.638;-2.020;2023-04-02T13:05:41;6.35;;;4.60;;
53959;SDS011;39866;48.638;-2.020;2023-04-02T13:08:17;8.55;;;4.85;;
53959;SDS011;39866;48.638;-2.020;2023-04-02T13:10:51;6.60;;;4.95;;
53959;SDS011;39866;48.638;-2.020;2023-04-02T13:13:24;10.38;;;4.47;;
53959;SDS011;39866;48.638;-2.020;2023-04-02T13:15:58;5.70;;;4.15;;
53959;SDS011;39866;48.638;-2.020;2023-04-02T13:20:55;7.33;;;4.43;;
53959;SDS011;39866;48.638;-2.020;2023-04-02T13:25:54;5.97;;;4.60;;
53959;SDS011;39866;48.638;-2.020;2023-04-02T13:28:20;7.93;;;3.80;;
53959;SDS011;39866;48.638;-2.020;2023-04-02T13:30:46;8.48;;;3.97;;
53959;SDS011;39866;48.638;-2.020;2023-04-02T13:33:12;6.72;;;3.95;;
53959;SDS011;39866;48.638;-2.020;2023-04-02T13:35:38;6.57;;;3.70;;
53959;SDS011;39866;48.638;-2.020;2023-04-02T13:38:04;7.70;;;3.70;;
53959;SDS011;39866;48.638;-2.020;2023-04-02T13:40:30;11.05;;;4.80;;
53959;SDS011;39866;48.638;-2.020;2023-04-02T13:42:57;8.35;;;3.92;;
53959;SDS011;39866;48.638;-2.020;2023-04-02T13:47:47;7.53;;;3.78;;
53959;SDS011;39866;48.638;-2.020;2023-04-02T13:50:16;6.07;;;3.95;;
53959;SDS011;39866;48.638;-2.020;2023-04-02T13:52:44;8.82;;;4.60;;
53959;SDS011;39866;48.638;-2.020;2023-04-02T13:55:10;8.25;;;3.80;;
53959;SDS011;39866;48.638;-2.020;2023-04-02T13:57:37;8.70;;;4.28;;
53959;SDS011;39866;48.638;-2.020;2023-04-02T14:00:03;5.55;;;3.50;;
53959;SDS011;39866;48.638;-2.020;2023-04-02T14:02:29;7.57;;;4.10;;
53959;SDS011;39866;48.638;-2.020;2023-04-02T14:05:02;8.15;;;4.20;;
53959;SDS011;39866;48.638;-2.020;2023-04-02T14:07:35;6.85;;;3.63;;
53959;SDS011;39866;48.638;-2.020;2023-04-02T14:10:15;6.55;;;3.75;;
53959;SDS011;39866;48.638;-2.020;2023-04-02T14:19:14;8.45;;;4.78;;
53959;SDS011;39866;48.638;-2.020;2023-04-02T14:31:08;7.50;;;4.10;;
53959;SDS011;39866;48.638;-2.020;2023-04-02T14:33:46;7.30;;;4.32;;
53959;SDS011;39866;48.638;-2.020;2023-04-02T14:44:47;5.55;;;4.15;;
53959;SDS011;39866;48.638;-2.020;2023-04-02T14:47:30;7.40;;;5.32;;
53959;SDS011;39866;48.638;-2.020;2023-04-02T14:50:18;11.20;;;5.32;;
